sensor_id;sensor_type;location;lat;lon;timestamp;P1;durP1;ratioP1;P2;durP2;ratioP2
37905;SDS011;23739;51.448;6.674;2023-05-07T00:09:49;7.30;;;5.32;;
37905;SDS011;23739;51.448;6.674;2023-05-07T00:12:15;6.97;;;5.07;;
37905;SDS011;23739;51.448;6.674;2023-05-07T00:18:21;5.90;;;5.15;;
37905;SDS011;23739;51.448;6.674;2023-05-07T00:20:47;9.45;;;5.45;;
37905;SDS011;23739;51.448;6.674;2023-05-07T00:23:13;7.18;;;5.85;;
37905;SDS011;23739;51.448;6.674;2023-05-07T00:25:39;10.55;;;5.28;;
37905;SDS011;23739;51.448;6.674;2023-05-07T00:28:05;7.80;;;5.40;;
37905;SDS011;23739;51.448;6.674;2023-05-07T00:30:32;8.25;;;5.68;;
37905;SDS011;23739;51.448;6.674;2023-05-07T00:32:58;9.57;;;5.30;;
37905;SDS011;23739;51.448;6.674;2023-05-07T00:35:24;6.07;;;5.05;;
37905;SDS011;23739;51.448;6.674;2023-05-07T00:37:50;6.85;;;5.35;;
37905;SDS011;23739;51.448;6.674;2023-05-07T00:40:16;8.23;;;6.15;;
37905;SDS011;23739;51.448;6.674;2023-05-07T00:42:42;7.60;;;5.45;;
37905;SDS011;23739;51.448;6.674;2023-05-07T00:45:12;5.78;;;4.68;;
37905;SDS011;23739;51.448;6.674;2023-05-07T00:47:38;6.43;;;5.32;;
37905;SDS011;23739;51.448;6.674;2023-05-07T00:50:04;6.38;;;4.95;;
37905;SDS011;23739;51.448;6.674;2023-05-07T00:52:31;6.75;;;5.53;;
37905;SDS011;23739;51.448;6.674;2023-05-07T00:54:57;11.63;;;5.50;;
37905;SDS011;23739;51.448;6.674;2023-05-07T00:57:24;7.78;;;6.13;;
37905;SDS011;23739;51.448;6.674;2023-05-07T00:59:51;7.90;;;5.60;;
37905;SDS011;23739;51.448;6.674;2023-05-07T01:02:17;9.82;;;6.28;;
37905;SDS011;23739;51.448;6.674;2023-05-07T01:04:43;7.40;;;5.15;;
37905;SDS011;23739;51.448;6.674;2023-05-07T01:07:09;7.80;;;5.45;;
37905;SDS011;23739;51.448;6.674;2023-05-07T01:09:35;7.47;;;6.05;;
37905;SDS011;23739;51.448;6.674;2023-05-07T01:12:02;8.35;;;6.07;;
37905;SDS011;23739;51.448;6.674;2023-05-07T01:14:28;9.07;;;5.80;;
37905;SDS011;23739;51.448;6.674;2023-05-07T01:16:56;9.40;;;6.00;;
37905;SDS011;23739;51.448;6.674;2023-05-07T01:19:22;5.82;;;5.22;;
37905;SDS011;23739;51.448;6.674;2023-05-07T01:21:48;7.13;;;5.90;;
37905;SDS011;23739;51.448;6.674;2023-05-07T01:24:14;6.85;;;5.50;;
37905;SDS011;23739;51.448;6.674;2023-05-07T01:26:42;8.60;;;6.00;;
37905;SDS011;23739;51.448;6.674;2023-05-07T01:29:08;8.70;;;6.05;;
37905;SDS011;23739;51.448;6.674;2023-05-07T01:31:34;10.38;;;5.50;;
37905;SDS011;23739;51.448;6.674;2023-05-07T01:34:01;8.52;;;6.82;;
37905;SDS011;23739;51.448;6.674;2023-05-07T01:36:29;7.55;;;6.28;;
37905;SDS011;23739;51.448;6.674;2023-05-07T01:38:55;9.38;;;6.95;;
37905;SDS011;23739;51.448;6.674;2023-05-07T01:41:22;8.88;;;7.50;;
37905;SDS011;23739;51.448;6.674;2023-05-07T01:43:49;10.57;;;6.68;;
37905;SDS011;23739;51.448;6.674;2023-05-07T01:46:16;11.07;;;6.97;;
37905;SDS011;23739;51.448;6.674;2023-05-07T01:48:43;11.20;;;8.93;;
37905;SDS011;23739;51.448;6.674;2023-05-07T01:51:11;9.23;;;8.32;;
37905;SDS011;23739;51.448;6.674;2023-05-07T01:53:37;11.27;;;9.13;;
37905;SDS011;23739;51.448;6.674;2023-05-07T01:56:04;10.77;;;8.38;;
37905;SDS011;23739;51.448;6.674;2023-05-07T01:58:30;8.80;;;7.90;;
37905;SDS011;23739;51.448;6.674;2023-05-07T02:00:56;10.27;;;8.15;;
37905;SDS011;23739;51.448;6.674;2023-05-07T02:03:22;9.48;;;8.32;;
37905;SDS011;23739;51.448;6.674;2023-05-07T02:05:49;11.13;;;9.57;;
37905;SDS011;23739;51.448;6.674;2023-05-07T02:08:15;10.50;;;9.20;;
37905;SDS011;23739;51.448;6.674;2023-05-07T02:10:41;10.65;;;9.30;;
37905;SDS011;23739;51.448;6.674;2023-05-07T02:13:07;10.05;;;8.27;;
37905;SDS011;23739;51.448;6.674;2023-05-07T02:15:33;9.63;;;8.18;;
37905;SDS011;23739;51.448;6.674;2023-05-07T02:18:06;9.40;;;8.50;;
37905;SDS011;23739;51.448;6.674;2023-05-07T02:20:32;9.73;;;8.60;;
37905;SDS011;23739;51.448;6.674;2023-05-07T02:22:58;11.80;;;8.85;;
37905;SDS011;23739;51.448;6.674;2023-05-07T02:25:25;10.27;;;7.93;;
37905;SDS011;23739;51.448;6.674;2023-05-07T02:27:51;11.40;;;8.55;;
37905;SDS011;23739;51.448;6.674;2023-05-07T02:30:17;10.65;;;8.82;;
37905;SDS011;23739;51.448;6.674;2023-05-07T02:32:46;10.98;;;9.02;;
37905;SDS011;23739;51.448;6.674;2023-05-07T02:35:12;11.18;;;8.25;;
37905;SDS011;23739;51.448;6.674;2023-05-07T02:37:38;8.68;;;7.07;;
37905;SDS011;23739;51.448;6.674;2023-05-07T02:40:04;13.18;;;8.93;;
37905;SDS011;23739;51.448;6.674;2023-05-07T02:42:30;17.70;;;9.60;;
37905;SDS011;23739;51.448;6.674;2023-05-07T02:44:57;11.15;;;8.18;;
37905;SDS011;23739;51.448;6.674;2023-05-07T02:47:23;9.43;;;7.88;;
37905;SDS011;23739;51.448;6.674;2023-05-07T02:49:49;9.25;;;8.07;;
37905;SDS011;23739;51.448;6.674;2023-05-07T02:52:15;9.95;;;8.98;;
37905;SDS011;23739;51.448;6.674;2023-05-07T02:54:41;10.23;;;8.95;;
37905;SDS011;23739;51.448;6.674;2023-05-07T02:57:07;11.95;;;8.23;;
37905;SDS011;23739;51.448;6.674;2023-05-07T02:59:33;10.65;;;8.95;;
37905;SDS011;23739;51.448;6.674;2023-05-07T03:01:59;11.73;;;9.63;;
37905;SDS011;23739;51.448;6.674;2023-05-07T03:04:25;12.35;;;9.20;;
37905;SDS011;23739;51.448;6.674;2023-05-07T03:06:51;12.35;;;9.90;;
37905;SDS011;23739;51.448;6.674;2023-05-07T03:09:17;12.55;;;10.48;;
37905;SDS011;23739;51.448;6.674;2023-05-07T03:11:43;11.90;;;9.85;;
37905;SDS011;23739;51.448;6.674;2023-05-07T03:14:09;12.68;;;9.55;;
37905;SDS011;23739;51.448;6.674;2023-05-07T03:16:35;15.30;;;11.07;;
37905;SDS011;23739;51.448;6.674;2023-05-07T03:19:02;11.48;;;10.25;;
37905;SDS011;23739;51.448;6.674;2023-05-07T03:21:28;12.85;;;10.18;;
37905;SDS011;23739;51.448;6.674;2023-05-07T03:23:54;11.45;;;9.43;;
37905;SDS011;23739;51.448;6.674;2023-05-07T03:26:20;12.45;;;10.38;;
37905;SDS011;23739;51.448;6.674;2023-05-07T03:28:46;11.38;;;9.52;;
37905;SDS011;23739;51.448;6.674;2023-05-07T03:31:13;15.32;;;10.18;;
37905;SDS011;23739;51.448;6.674;2023-05-07T03:33:49;10.63;;;9.57;;
37905;SDS011;23739;51.448;6.674;2023-05-07T03:36:16;13.05;;;10.00;;
37905;SDS011;23739;51.448;6.674;2023-05-07T03:38:41;12.38;;;9.65;;
37905;SDS011;23739;51.448;6.674;2023-05-07T03:41:07;11.85;;;9.90;;
37905;SDS011;23739;51.448;6.674;2023-05-07T03:43:33;10.77;;;8.80;;
37905;SDS011;23739;51.448;6.674;2023-05-07T03:46:00;11.30;;;10.20;;
37905;SDS011;23739;51.448;6.674;2023-05-07T03:48:26;15.25;;;11.30;;
37905;SDS011;23739;51.448;6.674;2023-05-07T03:50:52;12.93;;;11.00;;
37905;SDS011;23739;51.448;6.674;2023-05-07T03:53:18;11.02;;;9.85;;
37905;SDS011;23739;51.448;6.674;2023-05-07T03:55:44;17.30;;;11.50;;
37905;SDS011;23739;51.448;6.674;2023-05-07T03:58:10;14.15;;;11.35;;
37905;SDS011;23739;51.448;6.674;2023-05-07T04:00:36;12.77;;;9.77;;
37905;SDS011;23739;51.448;6.674;2023-05-07T04:03:04;13.90;;;9.95;;
37905;SDS011;23739;51.448;6.674;2023-05-07T04:05:30;13.50;;;10.65;;
37905;SDS011;23739;51.448;6.674;2023-05-07T04:07:59;15.80;;;12.00;;
37905;SDS011;23739;51.448;6.674;2023-05-07T04:10:26;13.02;;;10.60;;
37905;SDS011;23739;51.448;6.674;2023-05-07T04:12:53;12.88;;;10.77;;
37905;SDS011;23739;51.448;6.674;2023-05-07T04:15:19;15.23;;;10.40;;
37905;SDS011;23739;51.448;6.674;2023-05-07T04:17:45;11.55;;;9.32;;
37905;SDS011;23739;51.448;6.674;2023-05-07T04:20:15;13.60;;;10.52;;
37905;SDS011;23739;51.448;6.674;2023-05-07T04:22:41;11.95;;;10.48;;
37905;SDS011;23739;51.448;6.674;2023-05-07T04:25:08;12.65;;;9.77;;
37905;SDS011;23739;51.448;6.674;2023-05-07T04:27:34;11.93;;;9.68;;
37905;SDS011;23739;51.448;6.674;2023-05-07T04:30:01;13.88;;;10.07;;
37905;SDS011;23739;51.448;6.674;2023-05-07T04:32:28;16.85;;;10.48;;
37905;SDS011;23739;51.448;6.674;2023-05-07T04:34:54;12.25;;;9.95;;
37905;SDS011;23739;51.448;6.674;2023-05-07T04:37:20;13.88;;;10.40;;
37905;SDS011;23739;51.448;6.674;2023-05-07T04:39:46;12.77;;;10.35;;
37905;SDS011;23739;51.448;6.674;2023-05-07T04:42:16;12.20;;;9.48;;
37905;SDS011;23739;51.448;6.674;2023-05-07T04:44:43;13.18;;;10.50;;
37905;SDS011;23739;51.448;6.674;2023-05-07T04:47:10;12.00;;;10.10;;
37905;SDS011;23739;51.448;6.674;2023-05-07T04:49:36;10.43;;;9.43;;
37905;SDS011;23739;51.448;6.674;2023-05-07T04:52:02;15.82;;;11.10;;
37905;SDS011;23739;51.448;6.674;2023-05-07T04:54:29;12.50;;;10.60;;
37905;SDS011;23739;51.448;6.674;2023-05-07T04:56:55;12.35;;;10.20;;
37905;SDS011;23739;51.448;6.674;2023-05-07T04:59:21;13.50;;;11.07;;
37905;SDS011;23739;51.448;6.674;2023-05-07T05:01:47;11.15;;;10.05;;
37905;SDS011;23739;51.448;6.674;2023-05-07T05:04:13;10.98;;;9.88;;
37905;SDS011;23739;51.448;6.674;2023-05-07T05:06:39;14.25;;;10.65;;
37905;SDS011;23739;51.448;6.674;2023-05-07T05:09:06;12.27;;;9.60;;
37905;SDS011;23739;51.448;6.674;2023-05-07T05:11:32;13.00;;;10.63;;
37905;SDS011;23739;51.448;6.674;2023-05-07T05:13:59;12.30;;;11.00;;
37905;SDS011;23739;51.448;6.674;2023-05-07T05:16:25;22.27;;;12.48;;
37905;SDS011;23739;51.448;6.674;2023-05-07T05:18:51;13.35;;;11.18;;
37905;SDS011;23739;51.448;6.674;2023-05-07T05:21:19;14.57;;;10.68;;
37905;SDS011;23739;51.448;6.674;2023-05-07T05:23:45;14.63;;;11.90;;
37905;SDS011;23739;51.448;6.674;2023-05-07T05:26:11;14.68;;;12.02;;
37905;SDS011;23739;51.448;6.674;2023-05-07T05:28:37;15.05;;;11.90;;
37905;SDS011;23739;51.448;6.674;2023-05-07T05:31:04;13.32;;;12.02;;
37905;SDS011;23739;51.448;6.674;2023-05-07T05:33:30;14.55;;;11.88;;
37905;SDS011;23739;51.448;6.674;2023-05-07T05:35:56;15.25;;;13.45;;
37905;SDS011;23739;51.448;6.674;2023-05-07T05:38:22;14.40;;;12.82;;
37905;SDS011;23739;51.448;6.674;2023-05-07T05:40:48;15.38;;;13.25;;
37905;SDS011;23739;51.448;6.674;2023-05-07T05:43:14;14.82;;;12.82;;
37905;SDS011;23739;51.448;6.674;2023-05-07T05:45:41;14.90;;;12.25;;
37905;SDS011;23739;51.448;6.674;2023-05-07T05:48:07;16.25;;;13.05;;
37905;SDS011;23739;51.448;6.674;2023-05-07T05:50:33;17.85;;;13.75;;
37905;SDS011;23739;51.448;6.674;2023-05-07T05:53:01;14.80;;;11.95;;
37905;SDS011;23739;51.448;6.674;2023-05-07T05:55:27;14.32;;;12.50;;
37905;SDS011;23739;51.448;6.674;2023-05-07T05:57:53;18.02;;;13.52;;
37905;SDS011;23739;51.448;6.674;2023-05-07T06:00:19;14.27;;;11.68;;
37905;SDS011;23739;51.448;6.674;2023-05-07T06:02:49;15.23;;;12.35;;
37905;SDS011;23739;51.448;6.674;2023-05-07T06:05:15;14.45;;;12.25;;
37905;SDS011;23739;51.448;6.674;2023-05-07T06:07:41;14.25;;;11.18;;
37905;SDS011;23739;51.448;6.674;2023-05-07T06:10:07;14.27;;;12.70;;
37905;SDS011;23739;51.448;6.674;2023-05-07T06:12:34;11.40;;;10.20;;
37905;SDS011;23739;51.448;6.674;2023-05-07T06:15:00;13.40;;;10.02;;
37905;SDS011;23739;51.448;6.674;2023-05-07T06:17:26;12.10;;;9.88;;
37905;SDS011;23739;51.448;6.674;2023-05-07T06:19:52;9.35;;;8.45;;
37905;SDS011;23739;51.448;6.674;2023-05-07T06:22:18;11.15;;;9.52;;
37905;SDS011;23739;51.448;6.674;2023-05-07T06:24:45;9.85;;;8.27;;
37905;SDS011;23739;51.448;6.674;2023-05-07T06:27:11;9.77;;;7.57;;
37905;SDS011;23739;51.448;6.674;2023-05-07T06:29:37;6.95;;;6.30;;
37905;SDS011;23739;51.448;6.674;2023-05-07T06:32:09;8.88;;;7.97;;
37905;SDS011;23739;51.448;6.674;2023-05-07T06:34:36;7.32;;;6.60;;
37905;SDS011;23739;51.448;6.674;2023-05-07T06:37:02;6.68;;;5.95;;
37905;SDS011;23739;51.448;6.674;2023-05-07T06:39:28;9.65;;;7.00;;
37905;SDS011;23739;51.448;6.674;2023-05-07T06:41:55;8.45;;;6.70;;
37905;SDS011;23739;51.448;6.674;2023-05-07T06:44:21;9.70;;;6.35;;
37905;SDS011;23739;51.448;6.674;2023-05-07T06:46:47;7.63;;;6.13;;
37905;SDS011;23739;51.448;6.674;2023-05-07T06:49:13;7.88;;;5.55;;
37905;SDS011;23739;51.448;6.674;2023-05-07T06:51:39;6.20;;;5.60;;
37905;SDS011;23739;51.448;6.674;2023-05-07T06:54:05;6.63;;;5.35;;
37905;SDS011;23739;51.448;6.674;2023-05-07T06:56:32;5.90;;;4.80;;
37905;SDS011;23739;51.448;6.674;2023-05-07T06:58:59;5.50;;;4.57;;
37905;SDS011;23739;51.448;6.674;2023-05-07T07:01:26;6.57;;;4.82;;
37905;SDS011;23739;51.448;6.674;2023-05-07T07:03:52;5.00;;;4.18;;
37905;SDS011;23739;51.448;6.674;2023-05-07T07:06:18;6.10;;;5.30;;
37905;SDS011;23739;51.448;6.674;2023-05-07T07:08:44;8.48;;;5.50;;
37905;SDS011;23739;51.448;6.674;2023-05-07T07:11:10;6.55;;;5.22;;
37905;SDS011;23739;51.448;6.674;2023-05-07T07:13:36;7.88;;;4.80;;
37905;SDS011;23739;51.448;6.674;2023-05-07T07:16:02;6.10;;;4.40;;
37905;SDS011;23739;51.448;6.674;2023-05-07T07:18:29;6.90;;;4.38;;
37905;SDS011;23739;51.448;6.674;2023-05-07T07:20:55;4.85;;;3.97;;
37905;SDS011;23739;51.448;6.674;2023-05-07T07:23:21;5.22;;;3.97;;
37905;SDS011;23739;51.448;6.674;2023-05-07T07:25:47;4.57;;;3.28;;
37905;SDS011;23739;51.448;6.674;2023-05-07T07:28:13;4.28;;;3.50;;
37905;SDS011;23739;51.448;6.674;2023-05-07T07:30:39;4.60;;;3.55;;
37905;SDS011;23739;51.448;6.674;2023-05-07T07:33:05;3.97;;;3.35;;
37905;SDS011;23739;51.448;6.674;2023-05-07T07:35:32;3.55;;;3.05;;
37905;SDS011;23739;51.448;6.674;2023-05-07T07:37:58;4.03;;;3.58;;
37905;SDS011;23739;51.448;6.674;2023-05-07T07:40:24;7.72;;;3.10;;
37905;SDS011;23739;51.448;6.674;2023-05-07T07:42:51;5.60;;;3.90;;
37905;SDS011;23739;51.448;6.674;2023-05-07T07:45:17;4.07;;;2.95;;
37905;SDS011;23739;51.448;6.674;2023-05-07T07:47:43;4.20;;;3.25;;
37905;SDS011;23739;51.448;6.674;2023-05-07T07:50:10;4.68;;;2.60;;
37905;SDS011;23739;51.448;6.674;2023-05-07T07:52:36;3.00;;;2.58;;
37905;SDS011;23739;51.448;6.674;2023-05-07T07:55:02;4.03;;;2.80;;
37905;SDS011;23739;51.448;6.674;2023-05-07T07:57:28;3.80;;;2.55;;
37905;SDS011;23739;51.448;6.674;2023-05-07T07:59:56;3.60;;;2.25;;
37905;SDS011;23739;51.448;6.674;2023-05-07T08:02:22;5.90;;;3.35;;
37905;SDS011;23739;51.448;6.674;2023-05-07T08:04:48;3.50;;;2.65;;
37905;SDS011;23739;51.448;6.674;2023-05-07T08:07:14;2.78;;;2.05;;
37905;SDS011;23739;51.448;6.674;2023-05-07T08:09:40;4.90;;;2.55;;
37905;SDS011;23739;51.448;6.674;2023-05-07T08:12:06;3.45;;;2.80;;
37905;SDS011;23739;51.448;6.674;2023-05-07T08:14:33;4.95;;;2.92;;
37905;SDS011;23739;51.448;6.674;2023-05-07T08:16:59;3.25;;;2.30;;
37905;SDS011;23739;51.448;6.674;2023-05-07T08:19:25;3.53;;;2.90;;
37905;SDS011;23739;51.448;6.674;2023-05-07T08:21:51;5.13;;;2.10;;
37905;SDS011;23739;51.448;6.674;2023-05-07T08:24:18;4.55;;;2.63;;
37905;SDS011;23739;51.448;6.674;2023-05-07T08:26:44;4.35;;;3.45;;
37905;SDS011;23739;51.448;6.674;2023-05-07T08:29:10;4.13;;;3.03;;
37905;SDS011;23739;51.448;6.674;2023-05-07T08:31:37;2.92;;;2.63;;
37905;SDS011;23739;51.448;6.674;2023-05-07T08:34:06;5.32;;;2.60;;
37905;SDS011;23739;51.448;6.674;2023-05-07T08:36:32;7.40;;;2.88;;
37905;SDS011;23739;51.448;6.674;2023-05-07T08:38:59;13.32;;;3.53;;
37905;SDS011;23739;51.448;6.674;2023-05-07T08:41:25;2.80;;;2.22;;
37905;SDS011;23739;51.448;6.674;2023-05-07T08:43:51;3.40;;;2.67;;
37905;SDS011;23739;51.448;6.674;2023-05-07T08:46:19;4.82;;;3.35;;
37905;SDS011;23739;51.448;6.674;2023-05-07T08:48:47;3.22;;;2.42;;
37905;SDS011;23739;51.448;6.674;2023-05-07T08:51:15;4.32;;;2.58;;
37905;SDS011;23739;51.448;6.674;2023-05-07T08:53:42;3.28;;;2.53;;
37905;SDS011;23739;51.448;6.674;2023-05-07T08:56:08;2.60;;;2.13;;
37905;SDS011;23739;51.448;6.674;2023-05-07T08:58:35;5.65;;;3.25;;
37905;SDS011;23739;51.448;6.674;2023-05-07T09:01:02;3.47;;;2.95;;
37905;SDS011;23739;51.448;6.674;2023-05-07T09:03:30;3.00;;;2.70;;
37905;SDS011;23739;51.448;6.674;2023-05-07T09:05:56;3.53;;;2.58;;
37905;SDS011;23739;51.448;6.674;2023-05-07T09:08:26;3.47;;;2.75;;
37905;SDS011;23739;51.448;6.674;2023-05-07T09:10:52;3.17;;;2.05;;
37905;SDS011;23739;51.448;6.674;2023-05-07T09:13:19;7.10;;;2.95;;
37905;SDS011;23739;51.448;6.674;2023-05-07T09:15:45;4.97;;;2.92;;
37905;SDS011;23739;51.448;6.674;2023-05-07T09:18:12;2.72;;;2.08;;
37905;SDS011;23739;51.448;6.674;2023-05-07T09:20:38;2.10;;;1.90;;
37905;SDS011;23739;51.448;6.674;2023-05-07T09:23:05;2.08;;;1.90;;
37905;SDS011;23739;51.448;6.674;2023-05-07T09:25:32;3.70;;;2.05;;
37905;SDS011;23739;51.448;6.674;2023-05-07T09:27:59;3.03;;;1.83;;
37905;SDS011;23739;51.448;6.674;2023-05-07T09:30:29;2.55;;;2.28;;
37905;SDS011;23739;51.448;6.674;2023-05-07T09:32:55;1.88;;;1.45;;
37905;SDS011;23739;51.448;6.674;2023-05-07T09:35:22;3.47;;;1.60;;
37905;SDS011;23739;51.448;6.674;2023-05-07T09:37:52;4.55;;;2.15;;
37905;SDS011;23739;51.448;6.674;2023-05-07T09:40:22;2.00;;;1.17;;
37905;SDS011;23739;51.448;6.674;2023-05-07T09:42:48;3.08;;;1.48;;
37905;SDS011;23739;51.448;6.674;2023-05-07T09:45:36;3.08;;;1.60;;
37905;SDS011;23739;51.448;6.674;2023-05-07T09:48:01;1.92;;;1.30;;
37905;SDS011;23739;51.448;6.674;2023-05-07T09:50:32;2.47;;;1.70;;
37905;SDS011;23739;51.448;6.674;2023-05-07T09:53:01;2.78;;;1.20;;
37905;SDS011;23739;51.448;6.674;2023-05-07T09:55:29;2.30;;;1.73;;
37905;SDS011;23739;51.448;6.674;2023-05-07T09:57:55;3.78;;;1.15;;
37905;SDS011;23739;51.448;6.674;2023-05-07T10:00:22;1.90;;;1.17;;
37905;SDS011;23739;51.448;6.674;2023-05-07T10:02:48;3.28;;;1.92;;
37905;SDS011;23739;51.448;6.674;2023-05-07T10:05:19;2.95;;;1.38;;
37905;SDS011;23739;51.448;6.674;2023-05-07T10:07:46;1.77;;;1.30;;
37905;SDS011;23739;51.448;6.674;2023-05-07T10:10:12;2.03;;;1.52;;
37905;SDS011;23739;51.448;6.674;2023-05-07T10:12:38;2.35;;;1.30;;
37905;SDS011;23739;51.448;6.674;2023-05-07T10:15:06;1.77;;;1.30;;
37905;SDS011;23739;51.448;6.674;2023-05-07T10:17:34;3.35;;;2.00;;
37905;SDS011;23739;51.448;6.674;2023-05-07T10:20:01;2.13;;;1.48;;
37905;SDS011;23739;51.448;6.674;2023-05-07T10:22:28;2.90;;;1.65;;
37905;SDS011;23739;51.448;6.674;2023-05-07T10:24:55;3.05;;;1.23;;
37905;SDS011;23739;51.448;6.674;2023-05-07T10:27:22;1.60;;;1.42;;
37905;SDS011;23739;51.448;6.674;2023-05-07T10:34:50;3.17;;;1.80;;
37905;SDS011;23739;51.448;6.674;2023-05-07T10:37:19;3.10;;;1.58;;
37905;SDS011;23739;51.448;6.674;2023-05-07T10:39:45;4.75;;;1.77;;
37905;SDS011;23739;51.448;6.674;2023-05-07T10:42:13;2.85;;;1.83;;
37905;SDS011;23739;51.448;6.674;2023-05-07T10:44:39;3.40;;;2.00;;
37905;SDS011;23739;51.448;6.674;2023-05-07T10:49:33;1.60;;;1.50;;
37905;SDS011;23739;51.448;6.674;2023-05-07T10:54:44;2.17;;;1.42;;
37905;SDS011;23739;51.448;6.674;2023-05-07T10:59:55;2.25;;;1.60;;
37905;SDS011;23739;51.448;6.674;2023-05-07T11:02:21;2.13;;;1.20;;
37905;SDS011;23739;51.448;6.674;2023-05-07T11:07:32;2.25;;;1.60;;
37905;SDS011;23739;51.448;6.674;2023-05-07T11:09:59;4.55;;;1.58;;
37905;SDS011;23739;51.448;6.674;2023-05-07T11:15:08;2.15;;;1.70;;
37905;SDS011;23739;51.448;6.674;2023-05-07T11:17:35;5.28;;;2.13;;
37905;SDS011;23739;51.448;6.674;2023-05-07T11:20:17;1.67;;;1.30;;
37905;SDS011;23739;51.448;6.674;2023-05-07T11:22:43;5.60;;;1.70;;
37905;SDS011;23739;51.448;6.674;2023-05-07T11:25:09;3.40;;;1.73;;
37905;SDS011;23739;51.448;6.674;2023-05-07T11:27:36;2.53;;;1.52;;
37905;SDS011;23739;51.448;6.674;2023-05-07T11:30:02;3.17;;;2.00;;
37905;SDS011;23739;51.448;6.674;2023-05-07T11:32:29;3.10;;;1.40;;
37905;SDS011;23739;51.448;6.674;2023-05-07T11:34:55;1.88;;;1.48;;
37905;SDS011;23739;51.448;6.674;2023-05-07T11:37:22;2.80;;;1.70;;
37905;SDS011;23739;51.448;6.674;2023-05-07T11:39:48;2.13;;;1.70;;
37905;SDS011;23739;51.448;6.674;2023-05-07T11:44:51;2.47;;;1.80;;
37905;SDS011;23739;51.448;6.674;2023-05-07T11:47:18;1.40;;;1.30;;
37905;SDS011;23739;51.448;6.674;2023-05-07T11:49:47;4.30;;;1.77;;
37905;SDS011;23739;51.448;6.674;2023-05-07T11:52:14;3.58;;;1.67;;
37905;SDS011;23739;51.448;6.674;2023-05-07T11:54:40;2.13;;;1.65;;
37905;SDS011;23739;51.448;6.674;2023-05-07T11:57:06;1.67;;;1.58;;
37905;SDS011;23739;51.448;6.674;2023-05-07T11:59:41;3.00;;;1.98;;
37905;SDS011;23739;51.448;6.674;2023-05-07T12:02:14;4.93;;;1.52;;
37905;SDS011;23739;51.448;6.674;2023-05-07T12:04:41;1.60;;;1.42;;
37905;SDS011;23739;51.448;6.674;2023-05-07T12:07:14;2.63;;;1.67;;
37905;SDS011;23739;51.448;6.674;2023-05-07T12:09:41;2.85;;;2.20;;
37905;SDS011;23739;51.448;6.674;2023-05-07T12:12:07;1.85;;;1.50;;
37905;SDS011;23739;51.448;6.674;2023-05-07T12:14:37;3.50;;;2.17;;
37905;SDS011;23739;51.448;6.674;2023-05-07T12:17:03;4.05;;;1.90;;
37905;SDS011;23739;51.448;6.674;2023-05-07T12:19:30;3.55;;;2.10;;
37905;SDS011;23739;51.448;6.674;2023-05-07T12:21:56;2.58;;;1.80;;
37905;SDS011;23739;51.448;6.674;2023-05-07T12:24:22;2.33;;;1.73;;
37905;SDS011;23739;51.448;6.674;2023-05-07T12:26:49;2.50;;;1.30;;
37905;SDS011;23739;51.448;6.674;2023-05-07T12:29:15;4.70;;;2.05;;
37905;SDS011;23739;51.448;6.674;2023-05-07T12:31:41;2.90;;;1.85;;
37905;SDS011;23739;51.448;6.674;2023-05-07T12:34:07;2.30;;;1.73;;
37905;SDS011;23739;51.448;6.674;2023-05-07T12:36:37;1.95;;;1.75;;
37905;SDS011;23739;51.448;6.674;2023-05-07T12:39:04;2.28;;;2.05;;
37905;SDS011;23739;51.448;6.674;2023-05-07T12:41:30;2.28;;;1.95;;
37905;SDS011;23739;51.448;6.674;2023-05-07T12:44:01;2.90;;;1.70;;
37905;SDS011;23739;51.448;6.674;2023-05-07T12:46:30;4.90;;;2.30;;
37905;SDS011;23739;51.448;6.674;2023-05-07T12:48:56;6.88;;;2.08;;
37905;SDS011;23739;51.448;6.674;2023-05-07T12:51:22;3.15;;;2.47;;
37905;SDS011;23739;51.448;6.674;2023-05-07T12:53:49;4.32;;;2.63;;
37905;SDS011;23739;51.448;6.674;2023-05-07T12:56:15;3.63;;;2.15;;
37905;SDS011;23739;51.448;6.674;2023-05-07T12:58:41;6.05;;;2.70;;
37905;SDS011;23739;51.448;6.674;2023-05-07T13:01:07;4.20;;;2.40;;
37905;SDS011;23739;51.448;6.674;2023-05-07T13:03:35;3.00;;;1.95;;
37905;SDS011;23739;51.448;6.674;2023-05-07T13:06:10;5.20;;;2.15;;
37905;SDS011;23739;51.448;6.674;2023-05-07T13:08:38;3.28;;;2.25;;
37905;SDS011;23739;51.448;6.674;2023-05-07T13:11:10;4.25;;;1.92;;
37905;SDS011;23739;51.448;6.674;2023-05-07T13:13:38;3.42;;;1.85;;
37905;SDS011;23739;51.448;6.674;2023-05-07T13:16:05;2.90;;;1.90;;
37905;SDS011;23739;51.448;6.674;2023-05-07T13:18:32;2.72;;;1.90;;
37905;SDS011;23739;51.448;6.674;2023-05-07T13:20:58;5.90;;;2.70;;
37905;SDS011;23739;51.448;6.674;2023-05-07T13:23:25;3.22;;;2.30;;
37905;SDS011;23739;51.448;6.674;2023-05-07T13:25:51;2.88;;;2.22;;
37905;SDS011;23739;51.448;6.674;2023-05-07T13:28:20;5.03;;;2.55;;
37905;SDS011;23739;51.448;6.674;2023-05-07T13:30:47;5.00;;;2.78;;
37905;SDS011;23739;51.448;6.674;2023-05-07T13:33:13;3.13;;;2.70;;
37905;SDS011;23739;51.448;6.674;2023-05-07T13:35:41;4.22;;;2.28;;
37905;SDS011;23739;51.448;6.674;2023-05-07T13:38:07;2.55;;;2.20;;
37905;SDS011;23739;51.448;6.674;2023-05-07T13:40:33;6.82;;;2.70;;
37905;SDS011;23739;51.448;6.674;2023-05-07T13:42:59;5.50;;;2.30;;
37905;SDS011;23739;51.448;6.674;2023-05-07T13:45:27;3.95;;;2.88;;
37905;SDS011;23739;51.448;6.674;2023-05-07T13:47:55;4.38;;;2.40;;
37905;SDS011;23739;51.448;6.674;2023-05-07T13:50:21;4.60;;;2.60;;
37905;SDS011;23739;51.448;6.674;2023-05-07T13:52:47;4.05;;;2.60;;
37905;SDS011;23739;51.448;6.674;2023-05-07T13:55:19;2.20;;;2.00;;
37905;SDS011;23739;51.448;6.674;2023-05-07T13:57:46;5.40;;;3.40;;
37905;SDS011;23739;51.448;6.674;2023-05-07T14:00:13;7.20;;;3.03;;
37905;SDS011;23739;51.448;6.674;2023-05-07T14:02:41;3.58;;;2.60;;
37905;SDS011;23739;51.448;6.674;2023-05-07T14:05:07;2.97;;;2.45;;
37905;SDS011;23739;51.448;6.674;2023-05-07T14:07:34;3.33;;;2.85;;
37905;SDS011;23739;51.448;6.674;2023-05-07T14:10:00;3.83;;;2.28;;
37905;SDS011;23739;51.448;6.674;2023-05-07T14:12:27;3.25;;;2.67;;
37905;SDS011;23739;51.448;6.674;2023-05-07T14:14:53;3.22;;;2.58;;
37905;SDS011;23739;51.448;6.674;2023-05-07T14:17:20;3.67;;;2.90;;
37905;SDS011;23739;51.448;6.674;2023-05-07T14:19:48;2.80;;;2.60;;
37905;SDS011;23739;51.448;6.674;2023-05-07T14:22:14;3.20;;;2.83;;
37905;SDS011;23739;51.448;6.674;2023-05-07T14:24:40;4.72;;;2.65;;
37905;SDS011;23739;51.448;6.674;2023-05-07T14:27:06;5.55;;;2.78;;
37905;SDS011;23739;51.448;6.674;2023-05-07T14:29:32;5.30;;;2.97;;
37905;SDS011;23739;51.448;6.674;2023-05-07T14:32:00;4.57;;;3.22;;
37905;SDS011;23739;51.448;6.674;2023-05-07T14:34:27;3.33;;;2.65;;
37905;SDS011;23739;51.448;6.674;2023-05-07T14:36:53;4.45;;;2.67;;
37905;SDS011;23739;51.448;6.674;2023-05-07T14:39:20;5.43;;;3.75;;
37905;SDS011;23739;51.448;6.674;2023-05-07T14:41:46;5.03;;;3.65;;
37905;SDS011;23739;51.448;6.674;2023-05-07T14:44:12;7.40;;;3.80;;
37905;SDS011;23739;51.448;6.674;2023-05-07T14:46:38;6.63;;;4.40;;
37905;SDS011;23739;51.448;6.674;2023-05-07T14:49:04;6.32;;;4.63;;
37905;SDS011;23739;51.448;6.674;2023-05-07T14:51:31;6.13;;;4.75;;
37905;SDS011;23739;51.448;6.674;2023-05-07T14:53:57;7.97;;;4.60;;
37905;SDS011;23739;51.448;6.674;2023-05-07T14:56:24;6.05;;;4.60;;
37905;SDS011;23739;51.448;6.674;2023-05-07T14:58:50;7.38;;;4.28;;
37905;SDS011;23739;51.448;6.674;2023-05-07T15:01:16;5.53;;;4.25;;
37905;SDS011;23739;51.448;6.674;2023-05-07T15:03:43;5.72;;;4.88;;
37905;SDS011;23739;51.448;6.674;2023-05-07T15:06:09;6.18;;;4.00;;
37905;SDS011;23739;51.448;6.674;2023-05-07T15:08:35;8.38;;;5.05;;
37905;SDS011;23739;51.448;6.674;2023-05-07T15:11:01;5.45;;;4.13;;